Time;durP1;ratioP1;P1;durP2;ratioP2;P2;SDS_P1;SDS_P2;PMS_P1;PMS_P2;Temp;Humidity;BMP_temperature;BMP_pressure;BME280_temperature;BME280_humidity;BME280_pressure;Samples;Min_cycle;Max_cycle;Signal;HPM_P1;HPM_P2
2023/07/07 00:01:49;;;;;;;11.37;9.40;;;;;;;-141.97;63.04;47251.94;5008399;28;20781;-85
2023/07/07 00:04:14;;;;;;;12.97;9.70;;;;;;;-141.97;62.63;47497.94;5013346;28;20656;-85
2023/07/07 00:06:40;;;;;;;12.67;9.80;;;;;;;-141.97;62.43;47570.97;5012570;28;20178;-85
2023/07/07 00:09:05;;;;;;;13.97;9.97;;;;;;;-141.97;62.05;47636.31;5013055;28;20170;-85
2023/07/07 00:11:31;;;;;;;11.47;8.90;;;;;;;-141.97;62.31;47653.63;5013043;28;20666;-90
2023/07/07 00:13:57;;;;;;;11.73;9.27;;;;;;;-141.97;62.60;47394.16;5013648;28;20178;-89
2023/07/07 00:16:27;;;;;;;11.70;9.43;;;;;;;-141.97;62.05;47411.44;5013218;28;20159;-89
2023/07/07 00:19:02;;;;;;;13.33;9.60;;;;;;;-141.97;62.52;47496.00;5012243;28;20193;-88
2023/07/07 00:21:28;;;;;;;15.30;9.53;;;;;;;-141.97;62.34;47676.69;5013555;28;20170;-89
2023/07/07 00:23:56;;;;;;;12.80;9.33;;;;;;;-141.97;62.37;47490.25;5013307;28;20181;-86
2023/07/07 00:26:23;;;;;;;13.27;9.17;;;;;;;-141.97;62.29;47472.94;5013179;28;20244;-87
2023/07/07 00:28:49;;;;;;;14.27;8.80;;;;;;;-141.97;62.36;47476.78;4996514;28;20233;-88
2023/07/07 00:31:16;;;;;;;12.33;9.13;;;;;;;-141.97;62.22;47351.88;5012133;28;20184;-88
2023/07/07 00:33:42;;;;;;;12.53;9.27;;;;;;;-141.97;62.32;47569.06;5011593;28;20175;-87
2023/07/07 00:36:07;;;;;;;14.13;9.00;;;;;;;-141.97;62.95;47565.22;5010641;28;20224;-86
2023/07/07 00:38:33;;;;;;;11.77;8.53;;;;;;;-141.97;63.24;47469.09;5013060;28;20245;-88
2023/07/07 00:41:02;;;;;;;10.73;8.27;;;;;;;-141.97;62.85;47488.31;5013200;28;20666;-89
2023/07/07 00:43:28;;;;;;;10.70;8.63;;;;;;;-141.97;62.48;47499.84;5012764;28;20171;-87
2023/07/07 00:45:55;;;;;;;12.23;8.40;;;;;;;-141.97;63.06;47519.06;5012521;28;20229;-87
2023/07/07 00:48:24;;;;;;;11.17;8.63;;;;;;;-141.97;63.35;47380.69;5012107;28;20224;-87
2023/07/07 00:50:58;;;;;;;10.40;8.27;;;;;;;-141.97;63.30;47311.50;5012786;28;20162;-88
2023/07/07 00:53:24;;;;;;;10.87;8.30;;;;;;;-141.97;62.68;47442.19;5009055;28;20858;-88
2023/07/07 00:55:54;;;;;;;10.83;8.30;;;;;;;-141.97;62.87;47657.47;5011987;28;20178;-88
2023/07/07 00:58:22;;;;;;;10.70;8.90;;;;;;;-141.97;62.62;47519.06;5012252;28;20195;-87
2023/07/07 01:01:12;;;;;;;11.57;8.57;;;;;;;-141.97;62.70;47469.09;5012626;28;20167;-87
2023/07/07 01:03:45;;;;;;;11.60;8.20;;;;;;;-141.97;62.68;47488.31;5011230;28;20189;-88
2023/07/07 01:06:14;;;;;;;11.53;8.70;;;;;;;-141.97;62.78;47467.19;5027814;28;20177;-87
2023/07/07 01:08:42;;;;;;;10.80;8.33;;;;;;;-141.97;62.68;47484.47;5012112;28;20182;-88
2023/07/07 01:11:08;;;;;;;14.87;9.00;;;;;;;-141.97;62.57;47499.84;5011082;28;20173;-86
2023/07/07 01:13:34;;;;;;;12.07;9.13;;;;;;;-141.97;62.06;47384.53;5011849;28;20178;-87
2023/07/07 01:16:08;;;;;;;15.40;9.13;;;;;;;-141.97;61.92;47486.41;5012429;28;20174;-87
2023/07/07 01:19:15;;;;;;;11.33;8.73;;;;;;;-141.97;61.90;47488.31;5012481;28;20236;-87
2023/07/07 01:21:51;;;;;;;10.50;8.90;;;;;;;-141.97;61.80;47484.47;5061018;28;20287;-87
2023/07/07 01:24:28;;;;;;;13.53;9.40;;;;;;;-141.97;61.91;47482.56;5070052;28;20168;-87
2023/07/07 01:26:56;;;;;;;11.53;8.60;;;;;;;-141.97;61.41;47469.09;5052973;28;20195;-87
2023/07/07 01:29:39;;;;;;;12.27;8.73;;;;;;;-141.97;61.14;47638.25;5070164;28;20169;-87
2023/07/07 01:32:09;;;;;;;12.43;8.93;;;;;;;-141.97;61.25;47478.72;5069951;28;20250;-87
2023/07/07 01:34:35;;;;;;;13.13;9.40;;;;;;;-141.97;60.96;47472.94;5070346;28;20180;-87
2023/07/07 01:37:00;;;;;;;10.90;8.90;;;;;;;-141.97;61.19;47499.84;5070185;28;20215;-87
2023/07/07 01:39:26;;;;;;;11.80;9.00;;;;;;;-141.97;61.46;47398.00;5052552;28;20810;-87
2023/07/07 01:41:59;;;;;;;13.07;9.33;;;;;;;-141.97;61.80;47403.75;5069109;28;20242;-87
2023/07/07 01:44:31;;;;;;;11.77;9.13;;;;;;;-141.97;62.11;47469.09;5068940;28;20196;-87
2023/07/07 01:47:09;;;;;;;12.83;9.07;;;;;;;-141.97;62.75;47659.38;5070586;28;20716;-87
2023/07/07 01:50:12;;;;;;;14.63;9.47;;;;;;;-141.97;62.77;47492.16;5051155;28;20232;-87
2023/07/07 01:52:41;;;;;;;15.13;9.57;;;;;;;-141.97;62.89;47511.38;4990432;28;20261;-87
2023/07/07 01:55:15;;;;;;;11.47;9.10;;;;;;;-141.97;62.79;47421.06;4978799;28;20188;-87
2023/07/07 01:57:44;;;;;;;13.73;9.27;;;;;;;-141.97;63.82;47417.22;4978988;28;20211;-86
2023/07/07 02:00:12;;;;;;;12.07;9.43;;;;;;;-141.97;64.38;47522.91;4954032;29;20263;-86
2023/07/07 02:02:38;;;;;;;12.93;9.53;;;;;;;-141.97;65.08;47480.63;4951916;28;20201;-89
2023/07/07 02:05:04;;;;;;;14.77;10.33;;;;;;;-141.97;65.37;47494.09;4935850;29;20224;-88
2023/07/07 02:07:29;;;;;;;16.87;10.07;;;;;;;-141.97;65.67;47457.56;4952423;28;20184;-88
2023/07/07 02:09:54;;;;;;;14.53;10.40;;;;;;;-141.97;65.67;47496.00;4936197;29;20333;-87
2023/07/07 02:12:20;;;;;;;14.17;10.07;;;;;;;-141.97;65.18;47484.47;4935949;29;20185;-87
2023/07/07 02:14:47;;;;;;;14.00;10.20;;;;;;;-141.97;64.87;47240.41;4953798;28;20684;-86
2023/07/07 02:17:15;;;;;;;14.33;10.53;;;;;;;-141.97;64.51;47519.06;4952576;28;20197;-88
2023/07/07 02:19:44;;;;;;;12.47;9.93;;;;;;;-141.97;64.51;47432.59;4961745;28;20178;-88
2023/07/07 02:22:14;;;;;;;14.33;10.53;;;;;;;-141.97;64.28;47434.50;4960741;28;20233;-85
2023/07/07 02:24:39;;;;;;;14.80;10.40;;;;;;;-141.97;64.10;47175.06;4984106;28;20231;-85
2023/07/07 02:27:07;;;;;;;12.67;9.90;;;;;;;-141.97;63.76;47538.28;4955540;29;20388;-85
2023/07/07 02:29:32;;;;;;;12.93;10.10;;;;;;;-141.97;63.33;47670.91;4976474;28;20191;-85
2023/07/07 02:31:58;;;;;;;12.53;9.73;;;;;;;-141.97;63.40;47676.69;4995765;28;20533;-85
2023/07/07 02:34:23;;;;;;;12.30;9.80;;;;;;;-141.97;63.16;47449.88;4997256;28;20906;-85
2023/07/07 02:36:51;;;;;;;13.03;9.80;;;;;;;-141.97;62.98;47415.28;5015209;28;20222;-85
2023/07/07 02:39:16;;;;;;;13.83;9.67;;;;;;;-141.97;63.18;47392.22;5014756;28;20205;-86
2023/07/07 02:41:42;;;;;;;12.77;10.20;;;;;;;-141.97;63.75;47286.53;5015452;28;20183;-86
2023/07/07 02:44:07;;;;;;;12.27;9.80;;;;;;;-141.97;63.88;47472.94;5038906;28;20182;-86
2023/07/07 02:46:32;;;;;;;12.37;9.50;;;;;;;-141.97;64.14;47634.41;5010970;28;20771;-86
2023/07/07 02:48:58;;;;;;;12.87;10.07;;;;;;;-141.97;64.67;47417.22;4998536;28;20178;-86
2023/07/07 02:51:23;;;;;;;12.67;9.73;;;;;;;-141.97;64.17;47486.41;5014564;28;20250;-87
2023/07/07 02:53:49;;;;;;;12.47;9.50;;;;;;;-141.97;64.26;47670.91;5015198;28;20167;-88
2023/07/07 02:56:14;;;;;;;13.77;10.33;;;;;;;-141.97;64.54;47261.53;5014502;28;20183;-87
2023/07/07 02:58:40;;;;;;;13.33;9.93;;;;;;;-141.97;64.41;47594.03;5013814;28;20198;-88
2023/07/07 03:01:09;;;;;;;12.73;10.07;;;;;;;-141.97;64.11;47488.31;5015120;28;20178;-88
2023/07/07 03:03:39;;;;;;;15.97;10.03;;;;;;;-141.97;64.14;47705.53;5014459;28;20169;-88
2023/07/07 03:06:08;;;;;;;17.40;10.47;;;;;;;-141.97;64.76;47713.22;5014316;28;20659;-88
2023/07/07 03:08:34;;;;;;;12.53;9.77;;;;;;;-141.97;64.45;47645.94;5014068;28;20194;-88
2023/07/07 03:11:07;;;;;;;15.37;10.20;;;;;;;-141.97;64.23;47503.69;5009696;28;20222;-88
2023/07/07 03:13:32;;;;;;;13.40;10.27;;;;;;;-141.97;64.46;47465.25;4998095;28;20168;-87
2023/07/07 03:15:58;;;;;;;13.00;10.23;;;;;;;-141.97;65.10;47373.00;5001235;28;20170;-88
2023/07/07 03:18:25;;;;;;;14.83;10.70;;;;;;;-141.97;nan;47261.53;5013756;28;20578;-87
2023/07/07 03:20:50;;;;;;;14.70;10.20;;;;;;;-141.97;65.04;47472.94;5016001;28;20178;-88
2023/07/07 03:23:17;;;;;;;15.93;10.07;;;;;;;-141.97;65.27;47286.53;5015582;28;20606;-88
2023/07/07 03:25:42;;;;;;;13.77;10.43;;;;;;;-141.97;65.06;47649.78;5015692;28;20228;-88
2023/07/07 03:28:08;;;;;;;15.60;10.43;;;;;;;-141.97;65.00;47601.72;5015359;28;20171;-87
2023/07/07 03:30:36;;;;;;;15.33;10.37;;;;;;;-141.97;64.43;47394.16;5013798;28;20167;-88
2023/07/07 03:33:02;;;;;;;15.30;10.13;;;;;;;-141.97;64.88;47228.88;5014011;28;20163;-87
2023/07/07 03:35:28;;;;;;;15.23;10.10;;;;;;;-141.97;64.44;47403.75;5013947;28;20230;-86
2023/07/07 03:37:53;;;;;;;16.03;10.43;;;;;;;-141.97;64.44;47599.81;5009546;28;20194;-87
2023/07/07 03:43:22;;;;;;;14.10;10.47;;;;;;;-141.97;63.91;47507.53;5069843;28;20608;-83
2023/07/07 03:45:47;;;;;;;12.20;10.10;;;;;;;-141.97;63.33;47695.91;5054301;28;20306;-87
2023/07/07 03:48:13;;;;;;;15.17;10.60;;;;;;;-141.97;63.42;47513.31;5069770;28;20192;-87
2023/07/07 03:50:38;;;;;;;15.30;10.07;;;;;;;-141.97;63.65;47521.00;5071152;28;20689;-86
2023/07/07 03:53:04;;;;;;;14.30;10.33;;;;;;;-141.97;63.33;47238.47;5071606;28;20191;-87
2023/07/07 03:55:29;;;;;;;15.53;10.30;;;;;;;-141.97;63.00;47732.44;5071239;28;20198;-88
2023/07/07 03:57:55;;;;;;;14.77;10.10;;;;;;;-141.97;62.61;47240.41;5071179;28;20192;-88
2023/07/07 04:00:21;;;;;;;13.93;10.03;;;;;;;-141.97;62.10;47490.25;5071417;28;20184;-87
2023/07/07 04:02:47;;;;;;;16.03;10.03;;;;;;;-141.97;61.51;47632.47;5054194;28;20180;-88
2023/07/07 04:05:12;;;;;;;11.83;8.80;;;;;;;-141.97;61.51;47465.25;5054216;28;20294;-87
2023/07/07 04:07:37;;;;;;;15.23;9.60;;;;;;;-141.97;60.89;47630.56;5072967;28;20195;-88
2023/07/07 04:10:04;;;;;;;18.47;9.93;;;;;;;-141.97;60.49;47488.31;5072388;28;20177;-88
2023/07/07 04:12:31;;;;;;;13.80;9.50;;;;;;;-141.97;59.91;47503.69;5054374;28;20172;-87
2023/07/07 04:14:58;;;;;;;11.03;8.93;;;;;;;-141.97;59.86;47336.50;5055415;28;20270;-87
2023/07/07 04:17:23;;;;;;;15.30;9.50;;;;;;;-141.97;58.58;47457.56;5053599;28;20226;-87
2023/07/07 04:19:49;;;;;;;12.17;8.87;;;;;;;-141.97;58.01;47461.41;5038323;28;20199;-88
2023/07/07 04:22:14;;;;;;;12.53;9.07;;;;;;;-141.97;58.13;47484.47;4997014;28;20174;-88
2023/07/07 04:24:40;;;;;;;16.00;10.03;;;;;;;-141.97;57.55;47515.22;5015175;28;20174;-88
2023/07/07 04:27:05;;;;;;;14.70;9.57;;;;;;;-141.97;57.26;47599.81;5013286;28;20559;-89
2023/07/07 04:29:31;;;;;;;13.13;9.13;;;;;;;-141.97;57.17;47490.25;5012818;28;20174;-89
2023/07/07 04:31:56;;;;;;;12.60;9.40;;;;;;;-141.97;57.03;47373.00;5027550;28;20163;-88
2023/07/07 04:34:22;;;;;;;11.57;8.80;;;;;;;-141.97;57.04;47644.00;5013317;28;20163;-88
2023/07/07 04:36:48;;;;;;;12.10;9.30;;;;;;;-141.97;56.37;47221.19;5012173;28;20253;-88
2023/07/07 04:39:14;;;;;;;10.40;8.30;;;;;;;-141.97;56.19;47490.25;5011951;28;20233;-89
2023/07/07 04:41:40;;;;;;;11.40;8.27;;;;;;;-141.97;56.27;47688.22;5014198;28;20596;-89
2023/07/07 04:44:05;;;;;;;14.30;8.40;;;;;;;-141.97;55.97;47549.84;5028626;28;20178;-89
2023/07/07 04:46:34;;;;;;;13.13;8.80;;;;;;;-141.97;55.58;47678.63;5037416;28;20285;-88
2023/07/07 04:49:06;;;;;;;15.50;8.57;;;;;;;-141.97;55.41;47680.53;5032808;28;20185;-88
2023/07/07 04:51:32;;;;;;;13.53;8.57;;;;;;;-141.97;55.42;47413.38;5013833;28;20615;-88
2023/07/07 04:53:58;;;;;;;11.90;8.80;;;;;;;-141.97;55.36;47296.13;5013419;28;20600;-89
2023/07/07 04:56:23;;;;;;;12.63;8.70;;;;;;;-141.97;55.89;47657.47;5011332;28;20236;-88
2023/07/07 04:58:50;;;;;;;13.30;8.00;;;;;;;-141.97;56.30;47465.25;5027495;28;20272;-89
2023/07/07 05:01:19;;;;;;;14.77;8.50;;;;;;;-141.97;56.71;47634.41;5012848;28;20846;-87
2023/07/07 05:03:47;;;;;;;11.90;8.20;;;;;;;-141.97;56.27;47480.63;5011047;28;20182;-87
2023/07/07 05:06:13;;;;;;;11.60;8.33;;;;;;;-141.97;56.32;47365.31;5012501;28;20175;-87
2023/07/07 05:08:41;;;;;;;15.13;8.13;;;;;;;-141.97;56.39;47480.63;5007405;28;20260;-89
2023/07/07 05:11:09;;;;;;;11.53;8.40;;;;;;;-141.97;55.73;47361.47;5030709;28;20173;-89
2023/07/07 05:13:38;;;;;;;16.03;8.80;;;;;;;-141.97;54.86;47349.94;5031976;28;20236;-88
2023/07/07 05:16:06;;;;;;;11.30;8.73;;;;;;;-141.97;54.66;47442.19;5030528;28;20642;-86
2023/07/07 05:18:32;;;;;;;14.60;8.80;;;;;;;-141.97;55.09;47447.97;5029956;28;20190;-89
2023/07/07 05:20:58;;;;;;;11.50;7.57;;;;;;;-141.97;55.17;47338.41;5046734;28;20204;-87
2023/07/07 05:23:24;;;;;;;10.63;8.00;;;;;;;-141.97;55.43;47398.00;5034897;28;20232;-89
2023/07/07 05:25:51;;;;;;;12.10;8.60;;;;;;;-141.97;55.03;47642.09;5035847;28;20154;-89
2023/07/07 05:28:17;;;;;;;12.90;9.13;;;;;;;-141.97;54.88;47240.41;5034754;28;20170;-88
2023/07/07 05:30:42;;;;;;;11.13;8.33;;;;;;;-141.97;54.94;47607.50;5035814;28;20228;-89
2023/07/07 05:33:08;;;;;;;13.47;8.50;;;;;;;-141.97;54.48;47486.41;5035423;28;20158;-87
2023/07/07 05:35:34;;;;;;;11.57;7.95;;;;;;;-141.97;54.75;47484.47;5033764;28;20540;-87
2023/07/07 05:38:00;;;;;;;10.75;7.60;;;;;;;-141.97;54.81;47376.84;5033912;28;20206;-88
2023/07/07 05:40:29;;;;;;;11.98;7.70;;;;;;;-141.97;54.34;47240.41;5035597;28;20174;-87
2023/07/07 05:42:57;;;;;;;11.82;8.07;;;;;;;-141.97;54.25;47459.50;5035635;28;20190;-86
2023/07/07 05:45:23;;;;;;;10.35;8.02;;;;;;;-141.97;54.67;47357.63;5035537;28;20170;-88
2023/07/07 05:47:49;;;;;;;11.73;8.10;;;;;;;-141.97;54.86;47278.84;5035923;28;20163;-85
2023/07/07 05:50:14;;;;;;;9.27;7.72;;;;;;;-141.97;55.03;47563.28;5035882;28;20181;-87
2023/07/07 05:52:40;;;;;;;12.38;8.43;;;;;;;-141.97;55.37;47355.72;5034369;28;20296;-87
2023/07/07 05:55:06;;;;;;;12.00;8.40;;;;;;;-141.97;54.96;47261.53;5033531;28;20272;-87
2023/07/07 05:57:31;;;;;;;14.50;8.48;;;;;;;-141.97;54.74;47686.31;5035803;28;20184;-91
2023/07/07 05:59:57;;;;;;;12.45;8.68;;;;;;;-141.97;54.13;47519.06;5034918;28;20254;-89
2023/07/07 06:05:58;;;;;;;11.85;8.43;;;;;;;-141.97;53.53;47378.78;5012208;28;20189;-87
2023/07/07 06:08:44;;;;;;;14.30;9.43;;;;;;;-141.97;53.41;47188.50;5012324;28;20191;-87
2023/07/07 06:11:10;;;;;;;10.93;8.85;;;;;;;-141.97;52.83;47271.16;5012993;28;20216;-86
2023/07/07 06:13:35;;;;;;;11.50;8.15;;;;;;;-141.97;52.51;47413.38;4991869;28;20230;-86
2023/07/07 06:16:01;;;;;;;14.00;8.70;;;;;;;-141.97;52.86;47570.97;5005620;28;20190;-85
2023/07/07 06:18:27;;;;;;;10.35;8.98;;;;;;;-141.97;52.82;47455.66;4990042;28;20668;-86
2023/07/07 06:21:02;;;;;;;10.93;8.23;;;;;;;-141.97;52.20;47257.69;4990267;28;20579;-84
2023/07/07 06:23:49;;;;;;;13.15;9.10;;;;;;;-141.97;52.73;47440.28;4989440;28;20248;-85
2023/07/07 06:26:15;;;;;;;15.30;9.30;;;;;;;-141.97;52.07;47434.50;4989037;28;20194;-85
2023/07/07 06:31:31;;;;;;;12.43;8.85;;;;;;;-141.97;51.39;47597.88;4988750;28;20202;-85
2023/07/07 06:33:56;;;;;;;12.02;9.00;;;;;;;-141.97;51.33;47421.06;4971137;28;20302;-84
2023/07/07 06:36:22;;;;;;;15.07;9.40;;;;;;;-141.97;51.56;47457.56;4986338;28;20764;-80
2023/07/07 06:38:47;;;;;;;11.10;9.57;;;;;;;-141.97;51.13;47349.94;4996387;28;20238;-83
2023/07/07 06:41:15;;;;;;;13.55;9.15;;;;;;;-141.97;51.08;47413.38;4991359;28;20183;-84
2023/07/07 06:43:41;;;;;;;11.70;9.13;;;;;;;-141.97;49.83;47415.28;4993665;28;20202;-83
2023/07/07 06:46:10;;;;;;;14.82;9.63;;;;;;;-141.97;50.02;47424.91;4997892;28;20170;-84
2023/07/07 06:48:35;;;;;;;12.05;9.75;;;;;;;-141.97;49.23;47365.31;4996913;28;20174;-85
2023/07/07 06:51:01;;;;;;;11.02;9.02;;;;;;;-141.97;48.70;47340.34;4993859;28;20198;-85
2023/07/07 06:53:26;;;;;;;11.30;9.15;;;;;;;-141.97;48.76;47594.03;4997113;28;20180;-86
2023/07/07 06:55:51;;;;;;;11.15;9.40;;;;;;;-141.97;48.80;47353.78;5006664;28;20274;-86
2023/07/07 06:58:17;;;;;;;11.23;9.45;;;;;;;-141.97;48.63;47403.75;5012326;28;20602;-85
2023/07/07 07:00:43;;;;;;;13.27;9.60;;;;;;;-141.97;48.41;47417.22;5014193;28;20670;-84
2023/07/07 07:03:09;;;;;;;12.70;9.98;;;;;;;-141.97;48.80;47398.00;5014050;28;20246;-85
2023/07/07 07:05:34;;;;;;;12.02;9.40;;;;;;;-141.97;48.66;47428.75;5013838;28;20186;-86
2023/07/07 07:07:59;;;;;;;13.20;8.75;;;;;;;-141.97;48.01;47442.19;5027424;28;20171;-86
2023/07/07 07:10:25;;;;;;;13.65;9.57;;;;;;;-141.97;48.61;47405.69;5036712;28;20157;-86
2023/07/07 07:12:50;;;;;;;11.82;9.35;;;;;;;-141.97;48.63;47405.69;5031497;28;20250;-85
2023/07/07 07:15:16;;;;;;;10.77;9.60;;;;;;;-141.97;47.91;47359.56;5021217;28;20248;-86
2023/07/07 07:17:41;;;;;;;13.13;9.95;;;;;;;-141.97;47.08;47611.34;5032122;28;20564;-85
2023/07/07 07:20:09;;;;;;;11.55;10.30;;;;;;;-141.97;46.94;47349.94;5033086;28;20221;-86
2023/07/07 07:22:35;;;;;;;11.38;10.15;;;;;;;-141.97;47.29;47519.06;5032464;28;20160;-86
2023/07/07 07:25:00;;;;;;;13.68;10.18;;;;;;;-141.97;46.61;47376.84;5032419;28;20245;-86
2023/07/07 07:27:26;;;;;;;10.32;9.20;;;;;;;-141.97;45.59;47376.84;5033113;28;20261;-85
2023/07/07 07:29:51;;;;;;;14.13;9.45;;;;;;;-141.97;45.06;47326.88;5032929;28;20265;-85
2023/07/07 07:32:17;;;;;;;13.18;9.73;;;;;;;-141.97;44.93;47396.06;5033545;28;20154;-85
2023/07/07 07:34:43;;;;;;;13.15;9.80;;;;;;;-141.97;44.06;47374.94;5033085;28;20176;-85
2023/07/07 07:37:09;;;;;;;13.25;10.02;;;;;;;-141.97;43.52;47225.03;5031465;28;20187;-85
2023/07/07 07:39:34;;;;;;;11.38;9.60;;;;;;;-141.97;42.78;47269.22;5033083;28;20282;-85
2023/07/07 07:42:03;;;;;;;13.13;9.50;;;;;;;-141.97;43.52;47403.75;5032753;28;20200;-85
2023/07/07 07:44:29;;;;;;;11.23;9.85;;;;;;;-141.97;43.21;47394.16;5033078;28;20220;-85
2023/07/07 07:46:56;;;;;;;10.55;9.40;;;;;;;-141.97;43.08;47392.22;5043420;28;20234;-85
2023/07/07 07:49:23;;;;;;;13.35;9.82;;;;;;;-141.97;43.79;47386.47;5033342;28;20181;-86
2023/07/07 07:51:48;;;;;;;12.32;9.93;;;;;;;-141.97;43.39;47392.22;5027991;28;20196;-86
2023/07/07 07:54:17;;;;;;;14.10;9.63;;;;;;;-141.97;44.19;47399.91;5032756;28;20191;-85
2023/07/07 07:56:43;;;;;;;17.05;10.10;;;;;;;-141.97;42.81;47594.03;5031409;28;21102;-86
2023/07/07 07:59:08;;;;;;;16.00;9.93;;;;;;;-141.97;42.50;47605.56;5034012;28;20187;-86
2023/07/07 08:01:34;;;;;;;22.55;9.80;;;;;;;-141.97;41.26;47313.44;5033112;28;20172;-85
2023/07/07 08:04:00;;;;;;;11.98;8.93;;;;;;;-141.97;40.83;47363.41;5031818;28;20161;-85
2023/07/07 08:06:25;;;;;;;10.98;9.27;;;;;;;-141.97;41.42;47115.47;5032927;28;20168;-85
2023/07/07 08:08:51;;;;;;;11.55;9.30;;;;;;;-141.97;40.83;47373.00;5033242;28;20168;-85
2023/07/07 08:11:40;;;;;;;12.50;9.73;;;;;;;-141.97;40.93;47374.94;5032669;28;20169;-86
2023/07/07 08:14:09;;;;;;;11.70;9.32;;;;;;;-141.97;40.92;47323.03;5013106;28;20161;-86
2023/07/07 08:16:35;;;;;;;11.20;9.57;;;;;;;-141.97;40.32;47373.00;5020916;28;20197;-82
2023/07/07 08:19:00;;;;;;;12.52;9.27;;;;;;;-141.97;39.83;47130.84;5031038;28;20283;-86
2023/07/07 08:21:26;;;;;;;11.07;9.43;;;;;;;-141.97;40.23;47130.84;5031915;28;20253;-86
2023/07/07 08:23:51;;;;;;;12.57;9.27;;;;;;;-141.97;39.53;47207.72;5031843;28;20177;-87
2023/07/07 08:26:17;;;;;;;12.05;9.68;;;;;;;-141.97;39.33;47461.41;5030928;28;20266;-87
2023/07/07 08:28:42;;;;;;;12.38;9.65;;;;;;;-141.97;39.97;47330.72;5032020;28;20254;-87
2023/07/07 08:31:08;;;;;;;14.32;9.50;;;;;;;-141.97;40.61;47398.00;5032424;28;20180;-86
2023/07/07 08:33:35;;;;;;;12.35;9.48;;;;;;;-141.97;40.34;47134.69;5032184;28;20170;-87
2023/07/07 08:36:04;;;;;;;11.23;9.68;;;;;;;-141.97;40.03;47547.91;5031532;28;20927;-86
2023/07/07 08:38:32;;;;;;;12.82;9.95;;;;;;;-141.97;39.55;47125.09;5031334;28;20206;-87
2023/07/07 08:41:00;;;;;;;13.02;9.82;;;;;;;-141.97;38.87;47319.19;5031490;28;20165;-87
2023/07/07 08:43:29;;;;;;;11.23;9.65;;;;;;;-141.97;39.17;47182.75;5032235;28;20198;-86
2023/07/07 08:46:23;;;;;;;10.73;9.50;;;;;;;-141.97;39.48;47349.94;5031266;28;20592;-87
2023/07/07 08:49:04;;;;;;;13.10;9.43;;;;;;;-141.97;38.55;47225.03;5032291;28;20671;-86
2023/07/07 08:52:09;;;;;;;10.48;9.00;;;;;;;-141.97;38.94;47340.34;5032139;28;20162;-87
2023/07/07 08:54:47;;;;;;;14.25;9.10;;;;;;;-141.97;38.90;47234.63;5029176;28;20193;-86
2023/07/07 08:57:14;;;;;;;10.45;9.13;;;;;;;-141.97;38.73;47373.00;5028860;28;20245;-87
2023/07/07 08:59:49;;;;;;;10.32;8.48;;;;;;;-141.97;38.51;47315.34;5013024;28;20221;-86
2023/07/07 09:02:46;;;;;;;11.27;9.02;;;;;;;-141.97;38.58;47365.31;5029446;28;20567;-87
2023/07/07 09:05:58;;;;;;;15.07;9.30;;;;;;;-141.97;37.60;47401.84;5012872;28;20225;-86
2023/07/07 09:08:56;;;;;;;13.48;8.90;;;;;;;-141.97;37.54;47323.03;4970708;28;20204;-86
2023/07/07 09:11:37;;;;;;;11.40;8.90;;;;;;;-141.97;37.05;47576.75;4954894;28;20278;-87
2023/07/07 09:14:03;;;;;;;11.85;8.57;;;;;;;-141.97;37.29;47590.19;4951542;28;20199;-87
2023/07/07 09:16:32;;;;;;;13.90;9.20;;;;;;;-141.97;36.65;47380.69;4941324;29;20172;-86
2023/07/07 09:19:19;;;;;;;10.95;8.57;;;;;;;-141.97;36.08;47326.88;4958598;28;20240;-87
2023/07/07 09:22:01;;;;;;;9.50;8.35;;;;;;;-141.97;36.93;47376.84;4958710;29;20184;-87
2023/07/07 09:24:30;;;;;;;10.38;8.55;;;;;;;-141.97;37.39;47311.50;4952077;29;20687;-87
2023/07/07 09:27:07;;;;;;;9.45;8.23;;;;;;;-141.97;36.53;47269.22;4951288;28;20200;-87
2023/07/07 09:29:33;;;;;;;9.55;8.02;;;;;;;-141.97;36.27;47315.34;4968727;28;20671;-87
2023/07/07 09:32:02;;;;;;;8.90;7.35;;;;;;;-141.97;36.97;47324.97;4999462;28;20187;-87
2023/07/07 09:34:30;;;;;;;9.18;8.27;;;;;;;-141.97;37.22;47334.56;5008995;28;20147;-85
2023/07/07 09:37:07;;;;;;;10.65;8.70;;;;;;;-141.97;36.44;47324.97;5014927;28;20223;-87
2023/07/07 09:40:05;;;;;;;10.75;8.60;;;;;;;-141.97;36.51;47313.44;5010637;28;20219;-86
2023/07/07 09:42:41;;;;;;;7.95;7.15;;;;;;;-141.97;35.92;47323.03;4991016;28;20180;-87
2023/07/07 09:45:30;;;;;;;9.48;7.72;;;;;;;-141.97;35.36;47288.44;4987772;28;20276;-87
2023/07/07 09:48:25;;;;;;;9.15;8.15;;;;;;;-141.97;35.41;47303.81;5018989;28;20198;-87
2023/07/07 09:50:59;;;;;;;8.10;6.93;;;;;;;-141.97;35.01;47273.06;5036511;28;20252;-88
2023/07/07 09:53:33;;;;;;;11.88;8.18;;;;;;;-141.97;35.40;47547.91;5040668;28;20566;-87
2023/07/07 09:55:59;;;;;;;9.60;8.60;;;;;;;-141.97;35.11;47269.22;5026307;28;20201;-87
2023/07/07 09:58:34;;;;;;;9.13;8.02;;;;;;;-141.97;35.23;47311.50;5025082;28;20229;-85
2023/07/07 10:01:03;;;;;;;13.20;7.68;;;;;;;-141.97;35.23;47201.97;5040348;28;20200;-86
2023/07/07 10:03:33;;;;;;;9.30;7.75;;;;;;;-141.97;34.39;47301.91;5036538;28;20185;-87
2023/07/07 10:06:02;;;;;;;9.25;7.68;;;;;;;-141.97;34.04;47592.13;5036876;28;20249;-87
2023/07/07 10:08:31;;;;;;;9.68;7.60;;;;;;;-141.97;34.70;47576.75;5041247;28;20201;-86
2023/07/07 10:11:27;;;;;;;8.70;7.20;;;;;;;-141.97;34.58;47004.00;5027259;28;20903;-87
2023/07/07 10:13:53;;;;;;;9.82;7.20;;;;;;;-141.97;34.67;47073.19;5028053;28;20409;-86
2023/07/07 10:17:01;;;;;;;7.88;7.00;;;;;;;-141.97;35.21;47338.41;5033026;28;20297;-87
2023/07/07 10:19:55;;;;;;;9.05;7.10;;;;;;;-141.97;34.50;47465.25;5038960;28;20788;-86
2023/07/07 10:29:06;;;;;;;11.18;7.72;;;;;;;-141.97;35.08;47073.19;5040246;28;20197;-88
2023/07/07 10:31:58;;;;;;;10.88;7.00;;;;;;;-141.97;34.06;47092.41;5053268;28;20297;-87
2023/07/07 10:39:01;;;;;;;8.73;6.88;;;;;;;-141.97;34.21;47298.06;5037162;28;20748;-88
2023/07/07 10:45:03;;;;;;;7.22;6.45;;;;;;;-141.97;33.96;47123.16;4993281;28;20669;-88
2023/07/07 10:47:30;;;;;;;8.63;7.18;;;;;;;-141.97;33.91;47098.19;4992723;28;20171;-87
2023/07/07 10:49:57;;;;;;;8.35;6.82;;;;;;;-141.97;33.88;47113.56;4992680;28;20230;-88
2023/07/07 10:53:06;;;;;;;9.15;7.65;;;;;;;-141.97;33.75;47328.81;4993978;28;20695;-88
2023/07/07 10:55:44;;;;;;;8.05;6.95;;;;;;;-141.97;34.98;47219.25;4993458;28;20555;-88
2023/07/07 10:58:20;;;;;;;11.07;7.78;;;;;;;-141.97;34.04;47284.59;4989939;28;20218;-84
2023/07/07 11:00:58;;;;;;;8.63;7.53;;;;;;;-141.97;34.20;47294.22;4977114;28;20579;-86
2023/07/07 11:03:37;;;;;;;9.52;7.57;;;;;;;-141.97;34.23;47257.69;4993641;28;20328;-86
2023/07/07 11:06:23;;;;;;;12.38;7.40;;;;;;;-141.97;34.11;47284.59;4993577;28;20191;-89
2023/07/07 11:09:09;;;;;;;8.23;7.43;;;;;;;-141.97;34.48;47299.97;4993338;28;20195;-90
2023/07/07 11:12:06;;;;;;;8.98;8.07;;;;;;;-141.97;34.60;47282.69;5000714;28;20283;-88
2023/07/07 11:15:20;;;;;;;8.90;7.28;;;;;;;-141.97;34.33;47323.03;4979025;28;20192;-89
2023/07/07 11:18:20;;;;;;;8.57;7.63;;;;;;;-141.97;33.94;47273.06;4936431;29;20197;-89
2023/07/07 11:20:51;;;;;;;10.98;7.60;;;;;;;-141.97;33.91;47257.69;4951298;29;20205;-90
2023/07/07 11:23:51;;;;;;;7.93;7.13;;;;;;;-141.97;33.20;47282.69;4960602;28;20188;-86
2023/07/07 11:26:59;;;;;;;10.05;7.35;;;;;;;-141.97;32.86;47261.53;4962732;28;20200;-90
2023/07/07 11:29:54;;;;;;;8.65;7.05;;;;;;;-141.97;33.17;47294.22;4979066;28;20176;-87
2023/07/07 11:32:22;;;;;;;10.98;9.25;;;;;;;-141.97;32.61;47299.97;4976567;28;20180;-86
2023/07/07 11:35:02;;;;;;;9.32;7.05;;;;;;;-141.97;32.36;47284.59;4974194;28;20203;-89
2023/07/07 11:38:06;;;;;;;9.20;6.80;;;;;;;-141.97;32.31;47286.53;4977434;28;20223;-88
2023/07/07 11:41:02;;;;;;;8.77;6.97;;;;;;;-141.97;32.60;47326.88;4962408;28;20184;-86
2023/07/07 11:43:56;;;;;;;10.35;6.25;;;;;;;-141.97;32.90;47276.91;4981024;28;20516;-87
2023/07/07 11:46:46;;;;;;;8.30;6.82;;;;;;;-141.97;33.06;47269.22;4973048;28;20192;-88
2023/07/07 11:49:45;;;;;;;7.10;6.40;;;;;;;-141.97;32.37;47165.44;4972381;28;20239;-89
2023/07/07 11:52:22;;;;;;;7.57;6.50;;;;;;;-141.97;33.03;47290.38;5003194;28;20329;-84